Time;durP1;ratioP1;P1;durP2;ratioP2;P2;SDS_P1;SDS_P2;PMS_P1;PMS_P2;Temp;Humidity;BMP_temperature;BMP_pressure;BME280_temperature;BME280_humidity;BME280_pressure;Samples;Min_cycle;Max_cycle;Signal;HPM_P1;HPM_P2
2023/01/06 00:02:20;;;;;;;8.87;3.60;;;;;;;-145.18;100.00;46697.50;6183179;23;20009;-73
2023/01/06 00:04:45;;;;;;;11.70;3.03;;;;;;;-145.18;100.00;46705.31;6183215;23;20043;-71
2023/01/06 00:07:10;;;;;;;11.07;3.10;;;;;;;-145.18;100.00;46711.19;6183216;23;20335;-73
2023/01/06 00:09:37;;;;;;;3.87;2.23;;;;;;;-145.18;100.00;46705.31;6183373;23;20013;-73
2023/01/06 00:12:03;;;;;;;7.97;3.20;;;;;;;-145.18;100.00;46715.09;6183145;23;20001;-71
2023/01/06 00:14:28;;;;;;;8.47;2.60;;;;;;;-145.18;100.00;46717.03;6183461;23;20088;-73
2023/01/06 00:16:53;;;;;;;6.17;2.37;;;;;;;-145.18;100.00;46707.28;6156812;23;20008;-73
2023/01/06 00:19:19;;;;;;;7.80;1.97;;;;;;;-145.18;100.00;46715.09;6183283;23;20021;-73
2023/01/06 00:21:44;;;;;;;8.40;2.40;;;;;;;-145.18;100.00;46719.00;6182870;23;20494;-72
2023/01/06 00:24:10;;;;;;;9.07;2.00;;;;;;;-145.18;100.00;46720.94;6183145;23;20055;-73
2023/01/06 00:26:36;;;;;;;10.03;2.73;;;;;;;-145.18;100.00;46715.09;6183249;23;20022;-73
2023/01/06 00:29:01;;;;;;;7.43;2.00;;;;;;;-145.18;100.00;46720.94;6182793;23;20480;-73
2023/01/06 00:31:27;;;;;;;8.10;2.40;;;;;;;-145.18;100.00;46722.91;6183009;23;20563;-73
2023/01/06 00:33:56;;;;;;;12.67;3.10;;;;;;;-145.18;100.00;46719.00;6156362;23;20009;-73
2023/01/06 00:36:21;;;;;;;5.50;1.93;;;;;;;-145.18;100.00;46720.94;6182815;23;20012;-73
2023/01/06 00:38:48;;;;;;;8.33;2.57;;;;;;;-145.18;100.00;46720.94;6182050;23;20378;-73
2023/01/06 00:43:59;;;;;;;5.30;2.00;;;;;;;-145.18;100.00;46722.91;6182521;23;20509;-73
2023/01/06 00:46:27;;;;;;;6.33;2.07;;;;;;;-145.18;100.00;46722.91;6182494;23;20001;-73
2023/01/06 00:48:53;;;;;;;7.47;1.90;;;;;;;-145.18;100.00;46720.94;6182730;23;20009;-73
2023/01/06 00:51:19;;;;;;;6.17;2.20;;;;;;;-145.18;100.00;46724.84;6182906;23;20387;-72
2023/01/06 00:53:44;;;;;;;5.70;2.10;;;;;;;-145.18;100.00;46720.94;6182630;23;20085;-73
2023/01/06 00:56:10;;;;;;;5.83;2.60;;;;;;;-145.18;100.00;46722.91;6182672;23;20017;-73
2023/01/06 00:58:35;;;;;;;7.03;1.80;;;;;;;-145.18;100.00;46719.00;6182677;23;20047;-73
2023/01/06 01:01:08;;;;;;;7.00;2.20;;;;;;;-145.18;100.00;46724.84;6182436;23;20074;-73
2023/01/06 01:03:35;;;;;;;4.80;2.20;;;;;;;-145.18;100.00;46722.91;6156581;23;20012;-73
2023/01/06 01:06:05;;;;;;;7.70;2.17;;;;;;;-145.18;100.00;46726.81;6182623;23;20015;-73
2023/01/06 01:08:31;;;;;;;8.20;1.70;;;;;;;-145.18;100.00;46724.84;6182706;23;20066;-73
2023/01/06 01:11:06;;;;;;;5.87;2.30;;;;;;;-145.18;100.00;46722.91;6182538;23;20055;-73
2023/01/06 01:13:32;;;;;;;7.07;3.08;;;;;;;-145.18;100.00;46726.81;6157512;23;20005;-72
2023/01/06 01:16:05;;;;;;;7.27;2.00;;;;;;;-145.18;100.00;46722.91;6182471;23;20039;-73
2023/01/06 01:18:31;;;;;;;6.33;1.83;;;;;;;-145.18;100.00;46726.81;6182718;23;20005;-73
2023/01/06 01:20:56;;;;;;;7.43;2.07;;;;;;;-145.18;100.00;46726.81;6182612;23;20016;-73
2023/01/06 01:23:22;;;;;;;7.23;1.90;;;;;;;-145.18;100.00;46728.75;6182296;23;20036;-73
2023/01/06 01:25:47;;;;;;;4.90;1.47;;;;;;;-145.18;100.00;46724.84;6182572;23;20012;-73
2023/01/06 01:28:12;;;;;;;8.07;1.77;;;;;;;-145.18;100.00;46724.84;6182259;23;20489;-72
2023/01/06 01:30:38;;;;;;;8.13;1.80;;;;;;;-145.18;100.00;46732.66;6182289;23;20068;-73
2023/01/06 01:33:03;;;;;;;9.60;1.60;;;;;;;-145.18;100.00;46732.66;6155925;23;20009;-73
2023/01/06 01:35:28;;;;;;;5.43;1.90;;;;;;;-145.18;100.00;46728.75;6182632;23;20096;-73
2023/01/06 01:37:54;;;;;;;6.00;1.80;;;;;;;-145.18;100.00;46734.63;6182029;23;20335;-73
2023/01/06 01:40:19;;;;;;;3.83;1.20;;;;;;;-145.18;100.00;46732.66;6182483;23;20013;-73
2023/01/06 01:42:45;;;;;;;9.87;2.50;;;;;;;-145.18;100.00;46730.72;6182165;23;20024;-73
2023/01/06 01:45:22;;;;;;;5.47;1.60;;;;;;;-145.18;100.00;46728.75;6182551;23;20011;-73
2023/01/06 01:48:18;;;;;;;5.80;1.33;;;;;;;-145.18;100.00;46734.63;6182083;23;20005;-73
2023/01/06 01:50:52;;;;;;;7.03;1.70;;;;;;;-145.18;100.00;46734.63;6181919;23;20442;-73
2023/01/06 01:53:26;;;;;;;8.53;1.60;;;;;;;-145.18;100.00;46734.63;6182214;23;20327;-73
2023/01/06 01:55:54;;;;;;;7.07;1.90;;;;;;;-145.18;100.00;46732.66;6182074;23;20449;-72
2023/01/06 01:58:25;;;;;;;6.73;1.53;;;;;;;-145.18;100.00;46726.81;6182162;23;20013;-73
2023/01/06 02:00:51;;;;;;;7.03;2.17;;;;;;;-145.18;100.00;46724.84;6182089;23;20001;-73
2023/01/06 02:03:19;;;;;;;5.90;2.23;;;;;;;-145.18;100.00;46728.75;6182383;23;20017;-73
2023/01/06 02:05:50;;;;;;;4.63;2.10;;;;;;;-145.18;100.00;46732.66;6181863;23;20366;-73
2023/01/06 02:08:30;;;;;;;7.33;1.93;;;;;;;-145.18;100.00;46728.75;6181783;23;20012;-73
2023/01/06 02:10:56;;;;;;;8.23;2.53;;;;;;;-145.18;100.00;46724.84;6182079;23;20009;-73
2023/01/06 02:13:22;;;;;;;7.20;3.57;;;;;;;-145.18;100.00;46724.84;6182225;23;20008;-73
2023/01/06 02:15:51;;;;;;;4.70;2.70;;;;;;;-145.18;100.00;46728.75;6181924;23;20023;-73
2023/01/06 02:19:01;;;;;;;8.13;3.63;;;;;;;-145.18;100.00;46732.66;6182231;23;20064;-73
2023/01/06 02:21:32;;;;;;;10.57;3.63;;;;;;;-145.18;100.00;46726.81;6147736;23;20069;-73
2023/01/06 02:24:39;;;;;;;9.70;3.33;;;;;;;-145.18;100.00;46720.94;6181834;23;20005;-73
2023/01/06 02:27:07;;;;;;;11.07;4.18;;;;;;;-145.18;100.00;46722.91;6182032;23;20051;-75
2023/01/06 02:29:44;;;;;;;7.47;2.87;;;;;;;-145.18;100.00;46722.91;6181856;23;19997;-73
2023/01/06 02:32:31;;;;;;;8.47;3.20;;;;;;;-145.18;100.00;46724.84;6181914;23;20005;-73
2023/01/06 02:35:23;;;;;;;10.87;3.13;;;;;;;-145.18;100.00;46719.00;6181488;23;20306;-73
2023/01/06 02:38:12;;;;;;;9.17;2.90;;;;;;;-145.18;100.00;46726.81;6175451;23;20009;-73
2023/01/06 02:40:53;;;;;;;7.53;2.03;;;;;;;-145.18;100.00;46724.84;6181843;23;20009;-73
2023/01/06 02:43:28;;;;;;;6.03;2.03;;;;;;;-145.18;100.00;46728.75;6181902;23;20445;-73
2023/01/06 02:46:06;;;;;;;7.17;2.10;;;;;;;-145.18;100.00;46724.84;6181599;23;20384;-73
2023/01/06 02:49:15;;;;;;;7.63;2.03;;;;;;;-145.18;100.00;46728.75;6181995;23;20063;-73
2023/01/06 02:51:43;;;;;;;5.73;2.30;;;;;;;-145.18;100.00;46728.75;6181535;23;20063;-73
2023/01/06 02:54:25;;;;;;;10.97;2.60;;;;;;;-145.18;100.00;46726.81;6182022;23;20024;-73
2023/01/06 02:57:12;;;;;;;7.97;2.30;;;;;;;-145.18;100.00;46732.66;6181161;23;20088;-73
2023/01/06 02:59:55;;;;;;;7.90;1.83;;;;;;;-145.18;100.00;46732.66;6181579;23;20009;-73
2023/01/06 03:02:21;;;;;;;7.73;2.17;;;;;;;-145.18;100.00;46732.66;6155166;23;20349;-73
2023/01/06 03:04:49;;;;;;;4.87;1.90;;;;;;;-145.18;100.00;46736.56;6180403;23;20021;-73
2023/01/06 03:07:17;;;;;;;4.80;1.50;;;;;;;-145.18;100.00;46732.66;6181520;23;20062;-73
2023/01/06 03:09:44;;;;;;;7.47;1.80;;;;;;;-145.18;100.00;46734.63;6130561;23;20009;-73
2023/01/06 03:12:18;;;;;;;5.43;2.07;;;;;;;-145.18;100.00;46734.63;6181718;23;20019;-73
2023/01/06 03:14:48;;;;;;;7.77;2.17;;;;;;;-145.18;100.00;46732.66;6181371;23;20001;-73
2023/01/06 03:17:14;;;;;;;15.97;1.70;;;;;;;-145.18;100.00;46734.63;6181724;23;20648;-73
2023/01/06 03:19:39;;;;;;;4.73;1.33;;;;;;;-145.18;100.00;46734.63;6155740;23;20036;-73
2023/01/06 03:22:06;;;;;;;7.23;1.50;;;;;;;-145.18;100.00;46736.56;6181563;23;20060;-73
2023/01/06 03:24:34;;;;;;;5.90;1.30;;;;;;;-145.18;100.00;46734.63;6182145;23;20044;-73
2023/01/06 03:27:00;;;;;;;4.83;1.47;;;;;;;-145.18;100.00;46740.47;6181086;23;20337;-72
2023/01/06 03:29:25;;;;;;;5.60;1.40;;;;;;;-145.18;100.00;46736.56;6182077;23;20015;-73
2023/01/06 03:32:02;;;;;;;5.87;1.80;;;;;;;-145.18;100.00;46732.66;6181452;23;20009;-73
2023/01/06 03:34:57;;;;;;;3.33;1.23;;;;;;;-145.18;100.00;46736.56;6182269;23;20005;-73
2023/01/06 03:37:31;;;;;;;4.97;1.63;;;;;;;-145.18;100.00;46736.56;6181513;23;20435;-73
2023/01/06 03:40:05;;;;;;;5.43;1.83;;;;;;;-145.18;100.00;46732.66;6181912;23;20071;-73
2023/01/06 03:45:49;;;;;;;;;;;;;;;-145.18;100.00;46734.63;6182685;23;20087;-73
2023/01/06 03:48:26;;;;;;;2.87;1.30;;;;;;;-145.18;100.00;46736.56;6181744;23;19942;-73
2023/01/06 03:51:00;;;;;;;10.20;2.07;;;;;;;-145.18;100.00;46728.75;6181488;23;20430;-73
2023/01/06 03:53:41;;;;;;;4.43;1.53;;;;;;;-145.18;100.00;46740.47;6182103;23;20005;-73
2023/01/06 03:56:06;;;;;;;5.83;2.00;;;;;;;-145.18;100.00;46734.63;6181710;23;20013;-72
2023/01/06 03:58:33;;;;;;;7.47;1.53;;;;;;;-145.18;100.00;46734.63;6181708;23;20009;-73
2023/01/06 04:00:59;;;;;;;8.23;1.40;;;;;;;-145.18;100.00;46734.63;6181574;23;20442;-73
2023/01/06 04:03:25;;;;;;;4.67;1.60;;;;;;;-145.18;100.00;46732.66;6181540;23;20435;-73
2023/01/06 04:05:53;;;;;;;5.13;1.20;;;;;;;-145.18;100.00;46738.53;6181671;23;20009;-73
2023/01/06 04:08:19;;;;;;;4.27;2.13;;;;;;;-145.18;100.00;46734.63;6181761;23;20005;-74
2023/01/06 04:10:45;;;;;;;7.03;1.40;;;;;;;-145.18;100.00;46732.66;6181590;23;20084;-71
2023/01/06 04:13:10;;;;;;;6.37;1.30;;;;;;;-145.18;100.00;46734.63;6182981;23;20017;-71
2023/01/06 04:15:35;;;;;;;6.77;2.07;;;;;;;-145.18;100.00;46736.56;6183608;23;20020;-71
2023/01/06 04:18:01;;;;;;;4.23;1.23;;;;;;;-145.18;100.00;46736.56;6183036;23;20013;-71
2023/01/06 04:20:28;;;;;;;3.67;1.20;;;;;;;-145.18;100.00;46732.66;6183580;23;20040;-71
2023/01/06 04:22:55;;;;;;;2.90;1.30;;;;;;;-145.18;100.00;46736.56;6183174;23;20005;-74
2023/01/06 04:25:22;;;;;;;6.00;1.47;;;;;;;-145.18;100.00;46732.66;6183703;23;19997;-73
2023/01/06 04:27:48;;;;;;;4.40;1.17;;;;;;;-145.18;100.00;46726.81;6183170;23;20040;-73
2023/01/06 04:30:13;;;;;;;5.57;1.30;;;;;;;-145.18;100.00;46734.63;6183600;23;20005;-74
2023/01/06 04:32:38;;;;;;;4.17;1.33;;;;;;;-145.18;100.00;46728.75;6183271;23;20013;-74
2023/01/06 04:35:05;;;;;;;4.77;1.80;;;;;;;-145.18;100.00;46736.56;6183258;23;20016;-73
2023/01/06 04:37:30;;;;;;;3.77;1.10;;;;;;;-145.18;100.00;46734.63;6183044;23;20434;-73
2023/01/06 04:39:56;;;;;;;3.10;1.27;;;;;;;-145.18;100.00;46740.47;6156627;23;20005;-74
2023/01/06 04:42:21;;;;;;;6.07;1.50;;;;;;;-145.18;100.00;46732.66;6183030;23;20312;-73
2023/01/06 04:44:46;;;;;;;5.70;1.20;;;;;;;-145.18;100.00;46736.56;6183274;23;20013;-74
2023/01/06 04:47:12;;;;;;;3.27;1.20;;;;;;;-145.18;100.00;46734.63;6183276;23;20484;-73
2023/01/06 04:49:37;;;;;;;3.40;1.30;;;;;;;-145.18;100.00;46734.63;6183328;23;20013;-73
2023/01/06 04:52:04;;;;;;;3.50;1.30;;;;;;;-145.18;100.00;46736.56;6183176;23;20028;-73
2023/01/06 04:54:29;;;;;;;4.30;1.40;;;;;;;-145.18;100.00;46734.63;6183064;23;20044;-73
2023/01/06 04:56:55;;;;;;;3.53;1.27;;;;;;;-145.18;100.00;46740.47;6182696;23;20017;-74
2023/01/06 04:59:20;;;;;;;4.77;1.30;;;;;;;-145.18;100.00;46738.53;6183294;23;20434;-73
2023/01/06 05:01:46;;;;;;;4.13;1.20;;;;;;;-145.18;100.00;46734.63;6182902;23;20009;-73
2023/01/06 05:04:11;;;;;;;3.47;1.47;;;;;;;-145.18;100.00;46738.53;6182953;23;20008;-73
2023/01/06 05:06:38;;;;;;;6.60;1.40;;;;;;;-145.18;100.00;46734.63;6183418;23;20013;-73
2023/01/06 05:09:04;;;;;;;5.13;1.40;;;;;;;-145.18;100.00;46732.66;6182657;23;20331;-73
2023/01/06 05:11:30;;;;;;;4.63;1.33;;;;;;;-145.18;100.00;46728.75;6182913;23;20065;-74
2023/01/06 05:13:55;;;;;;;6.07;1.07;;;;;;;-145.18;100.00;46738.53;6182734;23;20009;-74
2023/01/06 05:16:32;;;;;;;6.80;1.17;;;;;;;-145.18;100.00;46732.66;6156887;23;20012;-73
2023/01/06 05:18:58;;;;;;;3.67;0.97;;;;;;;-145.18;100.00;46736.56;6182657;23;20012;-73
2023/01/06 05:21:25;;;;;;;1.80;1.00;;;;;;;-145.18;100.00;46736.56;6182577;23;20136;-73
2023/01/06 05:23:51;;;;;;;3.07;1.00;;;;;;;-145.18;100.00;46736.56;6182361;23;20428;-73
2023/01/06 05:26:22;;;;;;;2.90;1.00;;;;;;;-145.18;100.00;46736.56;6182877;23;20005;-73
2023/01/06 05:28:48;;;;;;;3.37;1.23;;;;;;;-145.18;100.00;46734.63;6182561;23;20333;-73
2023/01/06 05:31:14;;;;;;;3.60;1.40;;;;;;;-145.18;100.00;46736.56;6182857;23;20087;-74
2023/01/06 05:33:39;;;;;;;4.87;1.00;;;;;;;-145.18;100.00;46734.63;6182039;23;20033;-73
2023/01/06 05:36:08;;;;;;;4.10;1.20;;;;;;;-145.18;100.00;46738.53;6182185;23;20015;-74
2023/01/06 05:38:33;;;;;;;3.43;1.10;;;;;;;-145.18;100.00;46734.63;6182402;23;20005;-74
2023/01/06 05:40:59;;;;;;;5.20;1.50;;;;;;;-145.18;100.00;46734.63;6182477;23;20496;-74
2023/01/06 05:43:25;;;;;;;4.53;1.70;;;;;;;-145.18;100.00;46734.63;6182084;23;20021;-74
2023/01/06 05:45:51;;;;;;;6.20;1.90;;;;;;;-145.18;100.00;46734.63;6182269;23;20009;-74
2023/01/06 05:48:17;;;;;;;3.23;1.20;;;;;;;-145.18;100.00;46734.63;6182253;23;20008;-74
2023/01/06 05:50:42;;;;;;;3.67;1.10;;;;;;;-145.18;100.00;46732.66;6182653;23;20009;-74
2023/01/06 05:53:07;;;;;;;1.50;1.03;;;;;;;-145.18;100.00;46734.63;6181593;23;20502;-73
2023/01/06 05:55:33;;;;;;;2.63;1.30;;;;;;;-145.18;100.00;46726.81;6155826;23;20017;-73
2023/01/06 05:57:58;;;;;;;3.00;1.20;;;;;;;-145.18;100.00;46736.56;6155643;23;20032;-73
2023/01/06 06:00:23;;;;;;;4.93;1.43;;;;;;;-145.18;100.00;46734.63;6182002;23;20084;-74
2023/01/06 06:02:49;;;;;;;2.30;1.20;;;;;;;-145.18;100.00;46738.53;6180656;23;20430;-73
2023/01/06 06:05:14;;;;;;;4.40;1.47;;;;;;;-145.18;100.00;46734.63;6181160;23;20043;-73
2023/01/06 06:07:40;;;;;;;4.50;1.20;;;;;;;-145.18;100.00;46732.66;6181980;23;20063;-73
2023/01/06 06:10:06;;;;;;;2.57;1.30;;;;;;;-145.18;100.00;46734.63;6182367;23;20455;-73
2023/01/06 06:12:32;;;;;;;2.73;1.20;;;;;;;-145.18;100.00;46734.63;6182703;23;20012;-73
2023/01/06 06:14:57;;;;;;;5.10;1.70;;;;;;;-145.18;100.00;46732.66;6181989;23;20035;-73
2023/01/06 06:17:24;;;;;;;5.13;1.13;;;;;;;-145.18;100.00;46732.66;6182389;23;20020;-73
2023/01/06 06:19:49;;;;;;;4.17;1.40;;;;;;;-145.18;100.00;46736.56;6182720;23;20135;-73
2023/01/06 06:22:15;;;;;;;4.07;1.40;;;;;;;-145.18;100.00;46734.63;6182335;23;20040;-73
2023/01/06 06:24:40;;;;;;;5.83;1.67;;;;;;;-145.18;100.00;46726.81;6182467;23;20009;-73
2023/01/06 06:27:06;;;;;;;3.60;2.03;;;;;;;-145.18;100.00;46722.91;6181841;23;20009;-73
2023/01/06 06:29:31;;;;;;;2.97;1.80;;;;;;;-145.18;100.00;46722.91;6182337;23;20435;-74
2023/01/06 06:31:56;;;;;;;4.13;1.90;;;;;;;-145.18;100.00;46719.00;6182211;23;20039;-74
2023/01/06 06:34:22;;;;;;;5.50;1.80;;;;;;;-145.18;100.00;46722.91;6181968;23;20008;-73
2023/01/06 06:36:48;;;;;;;3.27;2.20;;;;;;;-145.18;100.00;46720.94;6181705;23;20059;-74
2023/01/06 06:39:13;;;;;;;3.17;2.10;;;;;;;-145.18;100.00;46719.00;6182266;23;20012;-73
2023/01/06 06:41:38;;;;;;;5.53;2.33;;;;;;;-145.18;100.00;46720.94;6151214;23;20008;-74
2023/01/06 06:44:04;;;;;;;3.90;2.10;;;;;;;-145.18;100.00;46719.00;6148694;23;20071;-73
2023/01/06 06:46:29;;;;;;;6.03;2.20;;;;;;;-145.18;100.00;46709.22;6154075;23;20005;-73
2023/01/06 06:48:55;;;;;;;4.53;2.50;;;;;;;-145.18;100.00;46717.03;6180630;23;20084;-73
2023/01/06 06:51:21;;;;;;;2.50;2.17;;;;;;;-145.18;100.00;46720.94;6181996;23;20654;-73
2023/01/06 06:53:47;;;;;;;4.27;2.30;;;;;;;-145.18;100.00;46715.09;6175489;23;20406;-73
2023/01/06 06:56:14;;;;;;;6.17;2.40;;;;;;;-145.18;100.00;46713.13;6182407;23;20092;-73
2023/01/06 06:58:39;;;;;;;4.17;2.63;;;;;;;-145.18;100.00;46719.00;6181728;23;20513;-73
2023/01/06 07:01:11;;;;;;;8.37;2.80;;;;;;;-145.18;100.00;46719.00;6181453;23;20016;-73
2023/01/06 07:03:36;;;;;;;4.83;2.70;;;;;;;-145.18;100.00;46715.09;6181353;23;20017;-73
2023/01/06 07:06:03;;;;;;;5.07;2.50;;;;;;;-145.18;100.00;46709.22;6181802;23;20031;-73
2023/01/06 07:08:31;;;;;;;8.63;3.00;;;;;;;-145.18;100.00;46707.28;6155164;23;20425;-73
2023/01/06 07:10:57;;;;;;;3.17;2.73;;;;;;;-145.18;100.00;46713.13;6181614;23;20055;-73
2023/01/06 07:13:22;;;;;;;4.87;2.70;;;;;;;-145.18;100.00;46713.13;6181857;23;20009;-73
2023/01/06 07:15:47;;;;;;;3.63;2.93;;;;;;;-145.18;100.00;46715.09;6181362;23;20019;-73
2023/01/06 07:18:13;;;;;;;3.87;3.10;;;;;;;-145.18;100.00;46709.22;6181935;23;20006;-73
2023/01/06 07:20:38;;;;;;;5.07;3.10;;;;;;;-145.18;100.00;46715.09;6181685;23;20422;-73
2023/01/06 07:23:04;;;;;;;6.43;3.77;;;;;;;-145.18;100.00;46705.31;6155098;23;20009;-73
2023/01/06 07:25:29;;;;;;;5.17;3.33;;;;;;;-145.18;100.00;46701.41;6181844;23;19997;-73
2023/01/06 07:27:56;;;;;;;4.73;4.10;;;;;;;-145.18;100.00;46697.50;6181218;23;20005;-73
2023/01/06 07:30:23;;;;;;;6.23;3.90;;;;;;;-145.18;100.00;46695.56;6182063;23;20028;-73
2023/01/06 07:32:49;;;;;;;6.47;3.03;;;;;;;-145.18;100.00;46703.38;6154884;23;20032;-72
2023/01/06 07:35:15;;;;;;;4.03;3.03;;;;;;;-145.18;100.00;46697.50;6181692;23;20017;-72
2023/01/06 07:37:40;;;;;;;7.37;3.60;;;;;;;-145.18;100.00;46695.56;6181474;23;20001;-73
2023/01/06 07:40:06;;;;;;;6.80;3.13;;;;;;;-145.18;100.00;46693.59;6181386;23;20133;-73
2023/01/06 07:42:33;;;;;;;6.63;3.67;;;;;;;-145.18;100.00;46691.66;6181960;23;20423;-73
2023/01/06 07:44:59;;;;;;;12.20;3.60;;;;;;;-145.18;100.00;46693.59;6181377;23;20016;-73
2023/01/06 07:47:24;;;;;;;3.33;3.03;;;;;;;-145.18;100.00;46693.59;6182500;23;20092;-73
2023/01/06 07:49:49;;;;;;;4.23;3.13;;;;;;;-145.18;100.00;46687.75;6183095;23;20059;-73
2023/01/06 07:52:15;;;;;;;7.07;4.10;;;;;;;-145.18;100.00;46689.69;6183890;23;20114;-73
2023/01/06 07:54:40;;;;;;;7.47;4.20;;;;;;;-145.18;100.00;46689.69;6183412;23;20017;-72
2023/01/06 07:57:05;;;;;;;7.33;5.27;;;;;;;-145.18;100.00;46693.59;6132213;23;20378;-73
2023/01/06 07:59:31;;;;;;;7.13;3.07;;;;;;;-145.18;100.00;46691.66;6183445;23;20005;-72
2023/01/06 08:01:56;;;;;;;8.73;4.50;;;;;;;-145.18;100.00;46705.31;6182951;23;20020;-73
2023/01/06 08:04:21;;;;;;;11.23;4.20;;;;;;;-145.18;100.00;46683.84;6183233;23;20005;-72
2023/01/06 08:06:47;;;;;;;9.90;4.23;;;;;;;-145.18;100.00;46689.69;6182897;23;20392;-72
2023/01/06 08:09:12;;;;;;;7.70;4.83;;;;;;;-145.18;100.00;46693.59;6183037;23;20104;-72
2023/01/06 08:11:37;;;;;;;9.13;4.33;;;;;;;-145.18;100.00;46683.84;6183761;23;20024;-72
2023/01/06 08:14:03;;;;;;;11.13;4.10;;;;;;;-145.18;100.00;46689.69;6182443;23;20036;-72
2023/01/06 08:16:28;;;;;;;9.67;4.57;;;;;;;-145.18;100.00;46695.56;6183469;23;20012;-72
2023/01/06 08:18:54;;;;;;;10.00;3.83;;;;;;;-145.18;100.00;46691.66;6182962;23;20016;-72
2023/01/06 08:21:19;;;;;;;7.10;3.30;;;;;;;-145.18;100.00;46683.84;6182803;23;20033;-71
2023/01/06 08:23:45;;;;;;;7.50;3.00;;;;;;;-145.18;100.00;46683.84;6183256;23;20083;-72
2023/01/06 08:26:13;;;;;;;12.03;3.30;;;;;;;-145.18;100.00;46689.69;6182867;23;20009;-72
2023/01/06 08:28:40;;;;;;;13.20;2.97;;;;;;;-145.18;100.00;46685.78;6183232;23;20009;-72
2023/01/06 08:31:14;;;;;;;14.87;3.70;;;;;;;-145.18;100.00;46695.56;6182837;23;20235;-72
2023/01/06 08:33:40;;;;;;;5.33;2.57;;;;;;;-145.18;100.00;46689.69;6183039;23;20345;-71
2023/01/06 08:36:07;;;;;;;12.23;2.80;;;;;;;-145.18;100.00;46689.69;6181453;23;20092;-71
2023/01/06 08:38:34;;;;;;;14.50;2.97;;;;;;;-145.18;100.00;46689.69;6183379;23;20422;-71
2023/01/06 08:41:01;;;;;;;13.53;2.90;;;;;;;-145.18;100.00;46697.50;6182757;23;20230;-71
2023/01/06 08:43:27;;;;;;;8.90;2.93;;;;;;;-145.18;100.00;46693.59;6183031;23;20226;-71
2023/01/06 08:45:53;;;;;;;14.27;2.80;;;;;;;-145.18;100.00;46691.66;6182799;23;20223;-71
2023/01/06 08:48:19;;;;;;;14.00;2.70;;;;;;;-145.18;100.00;46693.59;6182475;23;20056;-71
2023/01/06 08:50:45;;;;;;;8.73;2.03;;;;;;;-145.18;100.00;46703.38;6182943;23;20096;-71
2023/01/06 08:53:11;;;;;;;18.60;3.93;;;;;;;-145.18;100.00;46693.59;6156428;23;20259;-71
2023/01/06 08:55:41;;;;;;;11.07;2.70;;;;;;;-145.18;100.00;46687.75;6181067;23;20020;-71
2023/01/06 08:58:07;;;;;;;24.50;8.87;;;;;;;-145.18;100.00;46701.41;6181758;23;20227;-71
2023/01/06 09:00:33;;;;;;;32.53;12.13;;;;;;;-145.18;100.00;46695.56;6182457;23;20357;-72
2023/01/06 09:02:58;;;;;;;10.97;3.00;;;;;;;-145.18;100.00;46695.56;6181630;23;20285;-71
2023/01/06 09:05:24;;;;;;;12.70;3.50;;;;;;;-145.18;100.00;46699.47;6156411;23;20012;-71
2023/01/06 09:07:49;;;;;;;11.47;2.97;;;;;;;-145.18;100.00;46699.47;6182167;23;20096;-71
2023/01/06 09:10:16;;;;;;;14.17;3.90;;;;;;;-145.18;100.00;46707.28;6182223;23;20009;-71
2023/01/06 09:12:42;;;;;;;11.47;3.20;;;;;;;-145.18;100.00;46711.19;6182536;23;20001;-71
2023/01/06 09:15:07;;;;;;;13.10;3.87;;;;;;;-145.18;100.00;46705.31;6182086;23;20021;-72
2023/01/06 09:17:33;;;;;;;11.93;1.63;;;;;;;-145.18;100.00;46705.31;6155579;23;20434;-72
2023/01/06 09:19:58;;;;;;;14.33;2.07;;;;;;;-145.18;100.00;46707.28;6182369;23;20001;-71
2023/01/06 09:22:23;;;;;;;10.70;1.97;;;;;;;-145.18;100.00;46703.38;6182475;23;20012;-72
2023/01/06 09:24:49;;;;;;;13.27;1.60;;;;;;;-145.18;100.00;46705.31;6181731;23;20020;-72
2023/01/06 09:27:14;;;;;;;14.13;2.00;;;;;;;-145.18;100.00;46707.28;6182350;23;20370;-72
2023/01/06 09:29:40;;;;;;;5.97;1.33;;;;;;;-145.18;100.00;46703.38;6182232;23;20571;-73
2023/01/06 09:32:05;;;;;;;9.33;1.40;;;;;;;-145.18;100.00;46703.38;6182568;23;20051;-72
2023/01/06 09:34:30;;;;;;;10.47;2.03;;;;;;;-145.18;100.00;46705.31;6181907;23;20009;-73
2023/01/06 09:36:56;;;;;;;8.50;1.70;;;;;;;-145.18;100.00;46705.31;6182320;23;20048;-72
2023/01/06 09:39:21;;;;;;;7.57;1.00;;;;;;;-145.18;100.00;46705.31;6155877;23;20042;-73
2023/01/06 09:42:03;;;;;;;9.70;1.67;;;;;;;-145.18;100.00;46705.31;6181138;23;20425;-72
2023/01/06 09:44:40;;;;;;;13.23;1.63;;;;;;;-145.18;100.00;46709.22;6182110;23;20001;-72
2023/01/06 09:47:09;;;;;;;8.43;1.20;;;;;;;-145.18;100.00;46709.22;6182344;23;20012;-72
2023/01/06 09:49:43;;;;;;;10.37;1.60;;;;;;;-145.18;100.00;46705.31;6182298;23;20040;-72
2023/01/06 09:52:26;;;;;;;9.10;1.90;;;;;;;-145.18;100.00;46711.19;6182317;23;20015;-72
2023/01/06 09:54:56;;;;;;;11.43;1.53;;;;;;;-145.18;100.00;46709.22;6181560;23;20446;-72
2023/01/06 09:57:33;;;;;;;6.37;1.40;;;;;;;-145.18;100.00;46707.28;6182042;23;20303;-72
2023/01/06 10:00:04;;;;;;;9.20;2.00;;;;;;;-145.18;100.00;46711.19;6181965;23;20011;-73
2023/01/06 10:02:39;;;;;;;10.57;1.97;;;;;;;-145.18;100.00;46705.31;6182285;23;20346;-73
2023/01/06 10:05:39;;;;;;;18.40;1.77;;;;;;;-145.18;100.00;46705.31;6181752;23;20779;-73
2023/01/06 10:08:10;;;;;;;9.93;1.37;;;;;;;-145.18;100.00;46701.41;6061401;23;20011;-73
2023/01/06 10:11:07;;;;;;;8.17;1.30;;;;;;;-145.18;100.00;46699.47;6161449;23;20012;-72
2023/01/06 10:13:50;;;;;;;10.07;1.30;;;;;;;-145.18;100.00;46691.66;6181772;23;20005;-72
2023/01/06 10:16:21;;;;;;;14.23;1.70;;;;;;;-145.18;100.00;46679.94;6182226;23;20036;-73
2023/01/06 10:19:15;;;;;;;13.90;1.90;;;;;;;-145.18;100.00;46679.94;6181656;23;20060;-73
2023/01/06 10:21:41;;;;;;;10.37;1.40;;;;;;;-145.18;100.00;46660.41;6156078;23;20009;-73
2023/01/06 10:24:32;;;;;;;14.20;1.60;;;;;;;-145.18;100.00;46666.25;6181724;23;20033;-72
2023/01/06 10:27:12;;;;;;;11.83;1.43;;;;;;;-145.18;100.00;46664.31;6182072;23;20024;-72
2023/01/06 10:29:39;;;;;;;12.40;1.70;;;;;;;-145.18;100.00;46672.13;6181787;23;20009;-72
2023/01/06 10:32:07;;;;;;;6.40;1.30;;;;;;;-145.18;100.00;46666.25;6181997;23;20009;-73
2023/01/06 10:34:34;;;;;;;12.73;1.30;;;;;;;-145.18;100.00;46652.59;6181636;23;20020;-73
2023/01/06 10:37:16;;;;;;;8.70;1.13;;;;;;;-145.18;100.00;46660.41;6181865;23;20012;-72
2023/01/06 10:39:44;;;;;;;17.00;2.30;;;;;;;-145.18;100.00;46660.41;6181844;23;20406;-73
2023/01/06 10:45:13;;;;;;;10.47;1.30;;;;;;;-145.18;100.00;46621.31;6181211;23;20662;-73
2023/01/06 10:47:41;;;;;;;8.10;1.50;;;;;;;-145.18;100.00;46603.75;6182137;23;20050;-73
2023/01/06 10:50:11;;;;;;;4.90;0.80;;;;;;;-145.18;100.00;46592.03;6181795;23;20005;-73
2023/01/06 10:52:38;;;;;;;10.13;1.37;;;;;;;-145.18;100.00;46592.03;6182140;23;20020;-73
2023/01/06 10:55:05;;;;;;;12.13;2.50;;;;;;;-145.18;100.00;46597.88;6181311;23;20084;-73
2023/01/06 10:57:38;;;;;;;6.20;2.73;;;;;;;-145.18;100.00;46607.66;6182165;23;20005;-73
2023/01/06 11:00:14;;;;;;;11.57;1.90;;;;;;;-145.18;100.00;46609.59;6181699;23;20008;-73
2023/01/06 11:02:48;;;;;;;9.63;1.40;;;;;;;-145.18;100.00;46629.13;6181596;23;20040;-73
2023/01/06 11:05:15;;;;;;;12.63;1.23;;;;;;;-145.18;100.00;46638.91;6181888;23;20032;-73
2023/01/06 11:08:06;;;;;;;6.30;1.27;;;;;;;-145.18;100.00;46648.69;6181709;23;20012;-73
2023/01/06 11:10:51;;;;;;;7.03;0.93;;;;;;;-145.18;100.00;46652.59;6181117;23;20116;-73
2023/01/06 11:13:38;;;;;;;6.10;0.80;;;;;;;-145.18;100.00;46652.59;6179726;23;20062;-74
2023/01/06 11:16:07;;;;;;;12.80;1.47;;;;;;;-145.18;100.00;46664.31;6179139;23;20008;-74
2023/01/06 11:18:36;;;;;;;5.60;1.03;;;;;;;-145.18;100.00;46666.25;6180758;23;20156;-74
2023/01/06 11:21:04;;;;;;;11.23;2.67;;;;;;;-145.18;100.00;46654.53;6180755;23;20005;-74
2023/01/06 11:23:30;;;;;;;10.27;1.43;;;;;;;-145.18;100.00;46664.31;6183734;23;20347;-74
2023/01/06 11:26:05;;;;;;;7.20;1.17;;;;;;;-145.18;100.00;46674.06;6180852;23;20009;-74